Time;durP1;ratioP1;P1;durP2;ratioP2;P2;SDS_P1;SDS_P2;PMS_P1;PMS_P2;Temp;Humidity;BMP_temperature;BMP_pressure;BME280_temperature;BME280_humidity;BME280_pressure;Samples;Min_cycle;Max_cycle;Signal;HPM_P1;HPM_P2
2021/10/07 00:02:51;;;;;;;25.60;7.87;;;;;12.40;101882.00;;;;10463832;28;20296;-77
2021/10/07 00:07:54;;;;;;;19.97;8.60;;;;;12.30;101893.00;;;;10464318;28;20265;-77
2021/10/07 00:12:57;;;;;;;26.73;8.63;;;;;12.40;101892.00;;;;10464213;28;20197;-77
2021/10/07 00:17:59;;;;;;;30.07;8.63;;;;;12.30;101904.00;;;;10463608;28;20189;-77
2021/10/07 00:23:02;;;;;;;24.07;8.53;;;;;12.30;101905.00;;;;10422466;28;20228;-77
2021/10/07 00:28:11;;;;;;;21.07;8.40;;;;;12.30;101916.00;;;;10468892;28;20190;-78
2021/10/07 00:33:24;;;;;;;26.20;8.37;;;;;12.30;101915.00;;;;10456069;28;20644;-77
2021/10/07 00:43:46;;;;;;;21.40;7.37;;;;;12.00;101918.00;;;;10488251;28;20205;-77
2021/10/07 00:48:48;;;;;;;25.93;7.20;;;;;11.90;101912.00;;;;10504642;28;20201;-77
2021/10/07 00:53:50;;;;;;;16.47;6.37;;;;;11.70;101920.00;;;;10505189;28;20315;-76
2021/10/07 00:58:52;;;;;;;25.43;7.33;;;;;11.60;101933.00;;;;10487290;28;20228;-77
2021/10/07 01:03:54;;;;;;;22.17;6.77;;;;;11.50;101935.00;;;;10487586;28;20595;-77
2021/10/07 01:08:56;;;;;;;23.77;6.03;;;;;11.40;101939.00;;;;10487519;28;20194;-77
2021/10/07 01:13:58;;;;;;;24.70;7.27;;;;;11.30;101945.00;;;;10486711;28;20189;-78
2021/10/07 01:19:00;;;;;;;26.43;6.67;;;;;11.30;101946.00;;;;10430562;28;20190;-77
2021/10/07 01:24:02;;;;;;;25.00;6.73;;;;;11.20;101952.00;;;;10486929;28;20284;-76
2021/10/07 01:29:04;;;;;;;24.10;6.90;;;;;11.20;101952.00;;;;10466397;28;20668;-77
2021/10/07 01:34:06;;;;;;;20.00;7.40;;;;;11.20;101950.00;;;;10453305;28;20200;-77
2021/10/07 01:39:08;;;;;;;28.80;8.23;;;;;11.30;101957.00;;;;10501956;28;20196;-76
2021/10/07 01:44:10;;;;;;;21.57;7.63;;;;;11.30;101958.00;;;;10452429;28;20213;-77
2021/10/07 01:49:12;;;;;;;27.53;8.67;;;;;11.40;101952.00;;;;10468896;28;20201;-77
2021/10/07 01:54:14;;;;;;;19.37;8.13;;;;;11.40;101956.00;;;;10468746;28;20618;-76
2021/10/07 01:59:16;;;;;;;20.07;8.27;;;;;11.40;101964.00;;;;10468734;28;20228;-77
2021/10/07 02:04:18;;;;;;;23.87;9.00;;;;;11.50;101959.00;;;;10452451;28;20627;-76
2021/10/07 02:09:20;;;;;;;26.07;8.17;;;;;11.50;101960.00;;;;10446307;28;20245;-77
2021/10/07 02:14:23;;;;;;;19.40;8.43;;;;;11.50;101959.00;;;;10484861;28;20197;-77
2021/10/07 02:19:25;;;;;;;24.97;8.63;;;;;11.50;101957.00;;;;10468254;28;20209;-77
2021/10/07 02:24:27;;;;;;;20.07;7.20;;;;;11.50;101958.00;;;;10468228;28;20205;-77
2021/10/07 02:29:29;;;;;;;18.03;8.00;;;;;11.40;101972.00;;;;10467449;28;20581;-77
2021/10/07 02:34:31;;;;;;;24.40;8.17;;;;;11.20;101971.00;;;;10475898;28;20667;-76
2021/10/07 02:39:33;;;;;;;23.53;7.17;;;;;11.10;101976.00;;;;10494586;28;20205;-77
2021/10/07 02:44:35;;;;;;;22.23;7.30;;;;;10.90;101980.00;;;;10482368;28;20229;-76
2021/10/07 02:49:37;;;;;;;22.43;6.80;;;;;10.80;101973.00;;;;10482921;28;20729;-76
2021/10/07 02:54:39;;;;;;;23.73;8.07;;;;;10.80;101979.00;;;;10466276;28;20189;-77
2021/10/07 02:59:41;;;;;;;18.97;7.57;;;;;10.70;101991.00;;;;10482937;28;20239;-76
2021/10/07 03:04:44;;;;;;;25.90;9.40;;;;;10.60;101996.00;;;;10482301;28;20239;-76
2021/10/07 03:09:45;;;;;;;22.93;8.17;;;;;10.50;102002.00;;;;10498758;28;20212;-76
2021/10/07 03:14:48;;;;;;;23.00;8.03;;;;;10.40;102007.00;;;;10482502;28;20193;-77
2021/10/07 03:19:49;;;;;;;25.20;7.87;;;;;10.40;102014.00;;;;10465883;28;20247;-77
2021/10/07 03:24:55;;;;;;;22.40;7.90;;;;;10.30;102016.00;;;;10481781;28;20296;-78
2021/10/07 03:29:57;;;;;;;18.33;7.23;;;;;10.10;102023.00;;;;10449441;28;20194;-77
2021/10/07 03:34:59;;;;;;;19.40;7.17;;;;;10.00;102018.00;;;;10448830;28;20235;-77
2021/10/07 03:40:09;;;;;;;20.23;7.00;;;;;9.90;102028.00;;;;10460859;28;20217;-77
2021/10/07 03:45:11;;;;;;;21.10;6.90;;;;;9.90;102021.00;;;;10465707;28;20210;-77
2021/10/07 03:50:15;;;;;;;23.60;8.27;;;;;9.80;102031.00;;;;10440217;28;20206;-77
2021/10/07 03:55:16;;;;;;;19.57;7.33;;;;;9.70;102018.00;;;;10446013;28;20193;-76
2021/10/07 04:00:18;;;;;;;28.70;9.67;;;;;9.70;102028.00;;;;10455382;28;20229;-77
2021/10/07 04:05:20;;;;;;;21.93;8.57;;;;;9.70;102034.00;;;;10481014;28;20237;-77
2021/10/07 04:10:22;;;;;;;15.63;8.67;;;;;9.70;102026.00;;;;10481162;28;20197;-77
2021/10/07 04:15:24;;;;;;;18.40;9.50;;;;;9.60;102034.00;;;;10455846;28;20186;-77
2021/10/07 04:20:27;;;;;;;24.23;9.37;;;;;9.50;102041.00;;;;10496878;28;20371;-77
2021/10/07 04:25:29;;;;;;;27.77;10.47;;;;;9.50;102041.00;;;;10480327;28;20240;-77
2021/10/07 04:30:31;;;;;;;19.47;8.50;;;;;9.40;102038.00;;;;10480641;28;20201;-76
2021/10/07 04:35:33;;;;;;;18.47;9.27;;;;;9.40;102037.00;;;;10447824;28;20243;-77
2021/10/07 04:40:36;;;;;;;21.30;9.50;;;;;9.40;102037.00;;;;10442140;28;20247;-77
2021/10/07 04:45:38;;;;;;;25.17;9.30;;;;;9.40;102043.00;;;;10462233;28;20233;-77
2021/10/07 04:50:40;;;;;;;21.87;9.07;;;;;9.40;102039.00;;;;10438160;28;20248;-77
2021/10/07 04:55:42;;;;;;;29.70;11.23;;;;;9.40;102041.00;;;;10477173;28;20276;-77
2021/10/07 05:00:44;;;;;;;26.83;10.50;;;;;9.40;102055.00;;;;10445997;28;20202;-77
2021/10/07 05:05:46;;;;;;;20.00;9.20;;;;;9.30;102050.00;;;;10461747;28;20925;-77
2021/10/07 05:10:48;;;;;;;27.53;11.83;;;;;9.20;102062.00;;;;10433508;28;20243;-77
2021/10/07 05:15:52;;;;;;;23.57;9.33;;;;;9.10;102066.00;;;;10471156;28;20668;-77
2021/10/07 05:20:55;;;;;;;22.03;9.70;;;;;8.90;102062.00;;;;10438298;28;20192;-78
2021/10/07 05:25:57;;;;;;;19.63;10.97;;;;;8.80;102069.00;;;;10470816;28;20270;-77
2021/10/07 05:30:59;;;;;;;19.67;10.17;;;;;8.80;102081.00;;;;10463381;28;20201;-77
2021/10/07 05:36:02;;;;;;;27.80;11.47;;;;;8.90;102081.00;;;;10451401;28;20280;-77
2021/10/07 05:41:05;;;;;;;22.90;11.23;;;;;8.90;102082.00;;;;10470123;28;20220;-77
2021/10/07 05:46:07;;;;;;;20.60;10.43;;;;;9.00;102084.00;;;;10470453;28;20216;-77
2021/10/07 05:51:09;;;;;;;26.60;11.53;;;;;9.00;102085.00;;;;10486442;28;20204;-77
2021/10/07 05:56:11;;;;;;;26.27;12.43;;;;;9.00;102088.00;;;;10502228;28;20189;-78
2021/10/07 06:01:13;;;;;;;24.57;12.50;;;;;9.00;102089.00;;;;10484201;28;20236;-78
2021/10/07 06:06:15;;;;;;;19.57;12.87;;;;;9.10;102102.00;;;;10469132;28;20232;-78
2021/10/07 06:11:17;;;;;;;23.60;12.70;;;;;9.10;102119.00;;;;10452235;28;20742;-78
2021/10/07 06:16:19;;;;;;;19.27;12.57;;;;;9.10;102120.00;;;;10451266;28;20197;-78
2021/10/07 06:21:21;;;;;;;26.10;13.00;;;;;9.10;102132.00;;;;10467374;28;20217;-78
2021/10/07 06:26:32;;;;;;;22.57;12.17;;;;;9.10;102136.00;;;;10455383;28;20255;-78
2021/10/07 06:31:35;;;;;;;22.70;11.97;;;;;9.20;102144.00;;;;10466611;28;20190;-78
2021/10/07 06:36:37;;;;;;;24.53;13.17;;;;;9.30;102136.00;;;;10467789;28;20194;-78
2021/10/07 06:41:39;;;;;;;32.43;13.47;;;;;9.40;102143.00;;;;10451622;28;20213;-78
2021/10/07 06:46:42;;;;;;;28.73;13.43;;;;;9.60;102144.00;;;;10450952;28;20201;-77
2021/10/07 06:51:44;;;;;;;30.83;14.90;;;;;9.70;102147.00;;;;10467044;28;20676;-78
2021/10/07 06:56:46;;;;;;;32.43;15.07;;;;;9.90;102149.00;;;;10471350;28;20190;-79
2021/10/07 07:01:47;;;;;;;30.17;14.90;;;;;10.10;102152.00;;;;10450818;28;20719;-78
2021/10/07 07:06:50;;;;;;;29.27;16.50;;;;;10.40;102173.00;;;;10459977;28;20308;-78
2021/10/07 07:11:52;;;;;;;30.43;16.83;;;;;10.60;102186.00;;;;10475485;28;20722;-77
2021/10/07 07:16:54;;;;;;;32.40;17.77;;;;;10.90;102190.00;;;;10481537;28;20190;-78
2021/10/07 07:22:07;;;;;;;33.50;18.60;;;;;11.10;102191.00;;;;10480658;28;20193;-77
2021/10/07 07:27:11;;;;;;;33.87;18.03;;;;;11.30;102198.00;;;;10451252;28;20251;-77
2021/10/07 07:32:13;;;;;;;32.83;18.87;;;;;11.50;102217.00;;;;10457559;28;20202;-78
2021/10/07 07:37:15;;;;;;;32.50;19.50;;;;;11.70;102221.00;;;;10463780;28;20216;-77
2021/10/07 07:42:17;;;;;;;37.93;20.70;;;;;11.90;102214.00;;;;10477562;28;20233;-78
2021/10/07 07:47:21;;;;;;;40.23;20.43;;;;;12.20;102227.00;;;;10494010;28;20247;-78
2021/10/07 07:52:23;;;;;;;36.13;22.13;;;;;12.50;102244.00;;;;10459347;28;20255;-77
2021/10/07 07:57:25;;;;;;;34.70;23.57;;;;;13.00;102263.00;;;;10416419;28;20252;-77
2021/10/07 08:02:27;;;;;;;30.03;20.33;;;;;13.30;102267.00;;;;10461444;28;20189;-77
2021/10/07 08:07:29;;;;;;;27.60;19.10;;;;;13.60;102262.00;;;;10463737;28;20253;-77
2021/10/07 08:12:33;;;;;;;24.93;14.87;;;;;13.60;102278.00;;;;10463019;28;20201;-77
2021/10/07 08:17:37;;;;;;;20.60;13.50;;;;;13.40;102287.00;;;;10426495;28;20204;-77
2021/10/07 08:22:40;;;;;;;20.80;14.40;;;;;13.60;102293.00;;;;10459540;28;20221;-78
2021/10/07 08:27:44;;;;;;;22.83;14.60;;;;;14.00;102285.00;;;;10461617;28;20255;-77
2021/10/07 08:32:46;;;;;;;25.93;16.20;;;;;14.20;102290.00;;;;10454657;28;20190;-77
2021/10/07 08:37:48;;;;;;;28.80;16.20;;;;;14.80;102268.00;;;;10459668;28;20185;-77
2021/10/07 08:42:50;;;;;;;25.73;17.33;;;;;15.30;102252.00;;;;10476965;28;20201;-77
2021/10/07 08:47:54;;;;;;;16.13;12.85;;;;;15.40;102253.00;;;;10464608;28;20678;-78
2021/10/07 08:52:56;;;;;;;18.10;11.55;;;;;15.40;102263.00;;;;10465691;28;20198;-78
2021/10/07 08:57:59;;;;;;;14.07;11.07;;;;;15.60;102271.00;;;;10468150;28;20584;-78
2021/10/07 09:03:21;;;;;;;15.90;9.82;;;;;15.60;102277.00;;;;10503653;28;20212;-78
2021/10/07 09:08:23;;;;;;;19.08;10.63;;;;;15.40;102279.00;;;;10460946;28;20212;-79
2021/10/07 09:13:26;;;;;;;15.68;10.75;;;;;15.30;102276.00;;;;10468437;28;20224;-79
2021/10/07 09:18:29;;;;;;;17.15;11.60;;;;;15.30;102277.00;;;;10448462;28;20205;-78
2021/10/07 09:23:34;;;;;;;16.37;11.67;;;;;15.50;102274.00;;;;10453017;28;20189;-78
2021/10/07 09:28:58;;;;;;;18.85;11.88;;;;;15.80;102263.00;;;;10499657;28;20245;-79
2021/10/07 09:34:04;;;;;;;17.88;11.90;;;;;15.90;102257.00;;;;10460077;28;20190;-79
2021/10/07 09:39:07;;;;;;;16.38;12.15;;;;;16.10;102256.00;;;;10437504;28;20247;-79
2021/10/07 09:44:09;;;;;;;20.77;13.13;;;;;16.30;102251.00;;;;10484389;28;20205;-78
2021/10/07 09:49:31;;;;;;;21.05;12.15;;;;;16.50;102256.00;;;;10488131;28;20255;-78
2021/10/07 09:54:37;;;;;;;16.50;9.15;;;;;16.30;102247.00;;;;10482176;28;20201;-78
2021/10/07 09:59:55;;;;;;;14.98;8.80;;;;;16.00;102254.00;;;;10441860;28;20194;-78
2021/10/07 10:04:57;;;;;;;15.18;8.63;;;;;16.00;102250.00;;;;10452470;28;20210;-78
2021/10/07 10:09:59;;;;;;;14.50;9.32;;;;;15.90;102253.00;;;;10436464;28;20193;-78
2021/10/07 10:15:04;;;;;;;14.27;8.40;;;;;16.00;102261.00;;;;10482144;28;20190;-78
2021/10/07 10:20:15;;;;;;;16.02;7.07;;;;;16.10;102262.00;;;;10472940;28;20194;-78
2021/10/07 10:25:17;;;;;;;14.57;5.38;;;;;15.90;102256.00;;;;10465247;28;20216;-78
2021/10/07 10:30:25;;;;;;;10.00;6.40;;;;;15.90;102252.00;;;;10484033;28;20657;-78
2021/10/07 10:35:38;;;;;;;13.73;5.80;;;;;16.00;102259.00;;;;10428801;28;20289;-78
2021/10/07 10:40:40;;;;;;;14.93;8.88;;;;;16.20;102257.00;;;;10451614;28;20634;-77
2021/10/07 10:46:01;;;;;;;11.70;6.63;;;;;16.40;102261.00;;;;10461239;28;20198;-78
2021/10/07 10:51:03;;;;;;;9.80;5.80;;;;;16.80;102264.00;;;;10476396;28;20224;-77
2021/10/07 10:56:08;;;;;;;12.07;7.03;;;;;17.30;102270.00;;;;10437540;28;20538;-77
2021/10/07 11:01:14;;;;;;;10.90;5.82;;;;;17.70;102269.00;;;;10465361;28;20193;-78
2021/10/07 11:06:16;;;;;;;13.00;6.15;;;;;18.00;102277.00;;;;10464025;28;20571;-78
2021/10/07 11:11:24;;;;;;;11.38;5.15;;;;;18.10;102271.00;;;;10481048;28;20281;-78
2021/10/07 11:16:28;;;;;;;11.40;5.40;;;;;18.50;102282.00;;;;10453394;28;20714;-78
2021/10/07 11:21:30;;;;;;;9.63;5.50;;;;;18.40;102285.00;;;;10502555;28;20240;-78
2021/10/07 11:26:32;;;;;;;9.05;4.45;;;;;18.60;102268.00;;;;10452956;28;20205;-77
2021/10/07 11:31:34;;;;;;;8.68;5.32;;;;;18.90;102273.00;;;;10466133;28;20194;-78
2021/10/07 11:36:36;;;;;;;5.97;4.05;;;;;19.10;102281.00;;;;10465354;28;20609;-78
2021/10/07 11:41:41;;;;;;;8.82;4.88;;;;;18.80;102276.00;;;;10493377;28;20221;-78
2021/10/07 11:46:43;;;;;;;12.40;5.93;;;;;18.80;102273.00;;;;10481938;28;20221;-78
2021/10/07 11:51:45;;;;;;;10.00;3.35;;;;;19.10;102261.00;;;;10481266;28;20209;-77
2021/10/07 11:56:51;;;;;;;6.85;3.55;;;;;19.20;102258.00;;;;10490251;28;20192;-77
2021/10/07 12:01:54;;;;;;;8.52;3.50;;;;;18.80;102265.00;;;;10481406;28;20189;-78
2021/10/07 12:06:56;;;;;;;8.38;3.85;;;;;18.40;102263.00;;;;10469780;28;20201;-78
2021/10/07 12:12:04;;;;;;;7.40;3.90;;;;;18.70;102266.00;;;;10480204;28;20190;-77
2021/10/07 12:17:06;;;;;;;11.13;3.85;;;;;18.80;102266.00;;;;10471930;28;20189;-78
2021/10/07 12:22:25;;;;;;;11.80;3.97;;;;;18.60;102261.00;;;;10470534;28;20200;-77
2021/10/07 12:27:32;;;;;;;8.88;3.35;;;;;18.50;102259.00;;;;10473374;28;20695;-77
2021/10/07 12:32:34;;;;;;;5.65;3.42;;;;;18.30;102252.00;;;;10485881;28;20194;-78
2021/10/07 12:37:39;;;;;;;14.05;3.67;;;;;17.60;102250.00;;;;10459949;28;20666;-77
2021/10/07 12:42:46;;;;;;;8.27;3.47;;;;;18.40;102241.00;;;;10488706;28;20324;-77
2021/10/07 12:47:59;;;;;;;5.53;2.40;;;;;18.90;102240.00;;;;10504868;28;20542;-77
2021/10/07 12:53:01;;;;;;;8.77;3.05;;;;;19.10;102247.00;;;;10477468;28;20205;-76
2021/10/07 12:58:04;;;;;;;8.65;2.40;;;;;19.30;102241.00;;;;10455282;28;20209;-77
2021/10/07 13:03:20;;;;;;;4.43;1.50;;;;;19.30;102246.00;;;;10449091;28;20187;-77
2021/10/07 13:08:22;;;;;;;6.25;2.20;;;;;19.30;102243.00;;;;10473795;28;20217;-77
2021/10/07 13:13:24;;;;;;;4.13;2.05;;;;;19.30;102245.00;;;;10484171;28;20202;-77
2021/10/07 13:18:26;;;;;;;4.95;1.90;;;;;19.40;102250.00;;;;10467967;28;20226;-77
2021/10/07 13:23:28;;;;;;;6.13;2.45;;;;;19.60;102250.00;;;;10484162;28;20232;-78
2021/10/07 13:28:31;;;;;;;3.70;1.45;;;;;19.70;102257.00;;;;10506528;28;20223;-77
2021/10/07 13:33:33;;;;;;;4.95;1.67;;;;;19.30;102252.00;;;;10469376;28;20219;-77
2021/10/07 13:38:35;;;;;;;8.68;1.80;;;;;19.60;102251.00;;;;10463129;28;20190;-77
2021/10/07 13:43:39;;;;;;;6.05;1.80;;;;;19.60;102252.00;;;;10467338;28;20224;-78
2021/10/07 13:48:41;;;;;;;3.85;1.40;;;;;19.40;102252.00;;;;10488326;28;20197;-77
2021/10/07 13:53:43;;;;;;;4.70;1.52;;;;;18.80;102255.00;;;;10466721;28;20190;-77
2021/10/07 13:58:45;;;;;;;4.13;1.63;;;;;18.60;102255.00;;;;10488500;28;20185;-77
2021/10/07 14:03:47;;;;;;;3.65;1.52;;;;;18.30;102254.00;;;;10512608;28;20186;-77
2021/10/07 14:08:49;;;;;;;3.85;1.65;;;;;18.10;102254.00;;;;10473318;28;20240;-77
2021/10/07 14:13:51;;;;;;;7.45;1.77;;;;;18.10;102259.00;;;;10466006;28;20216;-77
2021/10/07 14:18:53;;;;;;;4.03;2.03;;;;;18.20;102260.00;;;;10482346;28;20185;-77
2021/10/07 14:23:55;;;;;;;3.78;1.83;;;;;18.20;102260.00;;;;10446703;28;20197;-77
2021/10/07 14:28:57;;;;;;;5.32;1.77;;;;;17.70;102259.00;;;;10487502;28;20205;-77
2021/10/07 14:33:58;;;;;;;7.47;1.88;;;;;17.80;102245.00;;;;10496000;28;20193;-78
2021/10/07 14:39:02;;;;;;;4.70;1.98;;;;;17.60;102246.00;;;;10501621;28;20278;-77
2021/10/07 14:44:04;;;;;;;5.93;2.13;;;;;17.50;102252.00;;;;10449577;28;20611;-78
2021/10/07 14:49:06;;;;;;;7.95;2.42;;;;;17.00;102250.00;;;;10464578;28;20561;-78
2021/10/07 14:54:08;;;;;;;4.30;1.70;;;;;16.80;102241.00;;;;10457325;28;20217;-77
2021/10/07 14:59:10;;;;;;;3.47;2.03;;;;;16.70;102248.00;;;;10490716;28;20189;-78
2021/10/07 15:04:15;;;;;;;6.13;2.00;;;;;16.80;102247.00;;;;10464154;28;20193;-78
2021/10/07 15:09:17;;;;;;;5.95;2.15;;;;;16.40;102250.00;;;;10494154;28;20274;-78
2021/10/07 15:14:21;;;;;;;4.75;2.00;;;;;16.30;102250.00;;;;10457951;28;20587;-78
2021/10/07 15:19:23;;;;;;;3.65;1.88;;;;;16.10;102259.00;;;;10478389;28;20194;-77
2021/10/07 15:24:25;;;;;;;3.30;1.90;;;;;16.00;102249.00;;;;10450979;28;20568;-78
2021/10/07 15:29:27;;;;;;;5.88;2.17;;;;;16.00;102253.00;;;;10462671;28;20204;-78
2021/10/07 15:34:29;;;;;;;4.70;2.30;;;;;15.90;102246.00;;;;10468033;28;20195;-77
2021/10/07 15:39:32;;;;;;;3.85;1.67;;;;;15.90;102256.00;;;;10474583;28;20255;-77
2021/10/07 15:44:34;;;;;;;3.93;1.87;;;;;15.70;102249.00;;;;10472197;28;20212;-77
2021/10/07 15:49:36;;;;;;;5.13;2.05;;;;;15.70;102253.00;;;;10492510;28;20192;-78
2021/10/07 15:54:38;;;;;;;4.82;2.30;;;;;15.60;102255.00;;;;10450823;28;20198;-77
2021/10/07 15:59:40;;;;;;;7.05;2.60;;;;;15.50;102260.00;;;;10474396;28;20247;-77
2021/10/07 16:04:42;;;;;;;5.97;2.15;;;;;15.30;102259.00;;;;10446569;28;20197;-77
2021/10/07 16:09:44;;;;;;;5.03;2.03;;;;;15.20;102260.00;;;;10459749;28;20276;-77
2021/10/07 16:14:46;;;;;;;2.50;1.90;;;;;15.10;102275.00;;;;10416424;28;20219;-77
2021/10/07 16:19:48;;;;;;;6.23;1.90;;;;;14.80;102273.00;;;;10472120;28;20196;-77
2021/10/07 16:24:50;;;;;;;5.37;2.53;;;;;14.70;102285.00;;;;10466665;28;20193;-77
2021/10/07 16:29:52;;;;;;;6.03;2.20;;;;;14.50;102294.00;;;;10445332;28;20224;-77
2021/10/07 16:34:54;;;;;;;6.07;2.37;;;;;14.40;102295.00;;;;10466870;28;20240;-76
2021/10/07 16:39:56;;;;;;;3.93;2.30;;;;;14.20;102301.00;;;;10450529;28;20303;-77
2021/10/07 16:44:58;;;;;;;4.23;2.93;;;;;14.00;102305.00;;;;10424071;28;20237;-77
2021/10/07 16:50:02;;;;;;;4.77;2.60;;;;;13.80;102311.00;;;;10428136;28;20207;-76
2021/10/07 16:55:05;;;;;;;7.33;3.10;;;;;13.60;102316.00;;;;10411586;28;20261;-77
2021/10/07 17:00:09;;;;;;;4.77;3.10;;;;;13.50;102312.00;;;;10460850;28;20198;-78
2021/10/07 17:05:12;;;;;;;4.30;2.87;;;;;13.30;102323.00;;;;10419685;28;20297;-77
2021/10/07 17:10:17;;;;;;;5.00;3.27;;;;;13.10;102325.00;;;;10453870;28;20229;-77
2021/10/07 17:15:21;;;;;;;11.90;4.47;;;;;13.00;102329.00;;;;10425971;28;20206;-78
2021/10/07 17:20:23;;;;;;;9.60;4.83;;;;;12.80;102335.00;;;;10390855;28;20685;-77
2021/10/07 17:25:29;;;;;;;9.07;3.73;;;;;12.70;102335.00;;;;10439792;28;20221;-77
2021/10/07 17:30:31;;;;;;;5.07;3.40;;;;;12.50;102336.00;;;;10453872;28;20202;-77
2021/10/07 17:35:33;;;;;;;13.03;4.20;;;;;12.40;102340.00;;;;10441688;28;20190;-76
2021/10/07 17:40:35;;;;;;;7.87;4.43;;;;;12.30;102347.00;;;;10441738;28;20210;-77
2021/10/07 17:45:37;;;;;;;12.67;6.13;;;;;12.20;102344.00;;;;10473899;28;20198;-77
2021/10/07 17:50:39;;;;;;;7.90;5.23;;;;;12.10;102329.00;;;;10409464;28;20203;-77
2021/10/07 17:55:42;;;;;;;9.00;5.57;;;;;12.00;102318.00;;;;10389783;28;20183;-77
2021/10/07 18:00:44;;;;;;;7.90;5.27;;;;;11.90;102315.00;;;;10399473;28;20191;-77
2021/10/07 18:05:50;;;;;;;9.40;4.90;;;;;11.80;102312.00;;;;10427250;28;20211;-77
2021/10/07 18:10:52;;;;;;;9.37;5.57;;;;;11.70;102318.00;;;;10398008;28;20199;-77
2021/10/07 18:15:54;;;;;;;10.33;7.40;;;;;11.70;102321.00;;;;10430998;28;20188;-77
2021/10/07 18:20:56;;;;;;;13.13;7.23;;;;;11.60;102318.00;;;;10396645;28;20659;-77
2021/10/07 18:25:58;;;;;;;10.90;7.67;;;;;11.60;102318.00;;;;10394218;28;20215;-77
2021/10/07 18:31:20;;;;;;;12.50;7.70;;;;;11.50;102328.00;;;;10384224;28;20729;-76
2021/10/07 18:36:22;;;;;;;11.97;8.17;;;;;11.40;102332.00;;;;10398368;28;20237;-77
2021/10/07 18:41:24;;;;;;;11.07;7.10;;;;;11.40;102331.00;;;;10395441;28;20625;-77
2021/10/07 18:46:26;;;;;;;12.27;7.93;;;;;11.30;102338.00;;;;10414197;28;20202;-77
2021/10/07 18:51:29;;;;;;;11.87;8.17;;;;;11.30;102334.00;;;;10432684;28;20205;-77
2021/10/07 18:56:34;;;;;;;21.33;10.27;;;;;11.30;102337.00;;;;10423417;28;20244;-77
2021/10/07 19:01:36;;;;;;;17.67;10.20;;;;;11.30;102345.00;;;;10412295;28;20221;-77
2021/10/07 19:06:38;;;;;;;17.07;9.80;;;;;11.40;102346.00;;;;10425011;28;20309;-77
2021/10/07 19:11:40;;;;;;;13.53;10.47;;;;;11.50;102340.00;;;;10461536;28;20190;-77
2021/10/07 19:16:42;;;;;;;20.17;12.37;;;;;11.50;102352.00;;;;10387168;28;20232;-77
2021/10/07 19:21:46;;;;;;;14.47;11.87;;;;;11.50;102348.00;;;;10416552;28;20653;-76
2021/10/07 19:26:48;;;;;;;18.67;12.90;;;;;11.60;102351.00;;;;10460225;28;20236;-77
2021/10/07 19:31:49;;;;;;;15.67;13.13;;;;;11.60;102357.00;;;;10424418;28;20253;-77
2021/10/07 19:36:52;;;;;;;15.10;12.80;;;;;11.60;102366.00;;;;10417664;28;20185;-77
2021/10/07 19:41:54;;;;;;;15.97;12.30;;;;;11.60;102372.00;;;;10454738;28;20669;-77
2021/10/07 19:46:57;;;;;;;19.07;12.00;;;;;11.60;102372.00;;;;10404612;28;20263;-77
2021/10/07 19:52:00;;;;;;;16.73;13.17;;;;;11.70;102386.00;;;;10420046;28;20247;-77
2021/10/07 19:57:03;;;;;;;20.30;13.63;;;;;11.70;102388.00;;;;10447931;28;20236;-77
2021/10/07 20:02:06;;;;;;;18.70;13.77;;;;;11.80;102385.00;;;;10396022;28;20198;-77
2021/10/07 20:07:08;;;;;;;12.70;9.47;;;;;11.80;102388.00;;;;10420205;28;20211;-77
2021/10/07 20:12:10;;;;;;;12.50;9.80;;;;;11.80;102398.00;;;;10452208;28;20186;-77
2021/10/07 20:17:12;;;;;;;15.50;9.77;;;;;11.70;102396.00;;;;10452991;28;20238;-77
2021/10/07 20:22:38;;;;;;;13.17;10.17;;;;;11.70;102394.00;;;;10646531;27;20345;-76
2021/10/07 20:27:50;;;;;;;15.00;10.77;;;;;11.60;102399.00;;;;10590003;27;20199;-77
2021/10/07 20:32:52;;;;;;;34.77;20.77;;;;;11.50;102398.00;;;;10622122;27;20195;-78
2021/10/07 20:37:57;;;;;;;18.33;11.23;;;;;11.40;102399.00;;;;10637338;27;20218;-76
2021/10/07 20:42:59;;;;;;;15.70;11.00;;;;;11.20;102408.00;;;;10622921;27;20187;-77
2021/10/07 20:48:00;;;;;;;11.40;9.50;;;;;11.10;102406.00;;;;10606908;27;20264;-77
2021/10/07 20:53:02;;;;;;;17.17;11.50;;;;;11.00;102398.00;;;;10516773;28;20204;-76
2021/10/07 20:58:03;;;;;;;17.47;13.70;;;;;10.90;102408.00;;;;10666875;22;20224;-79
2021/10/07 21:03:05;;;;;;;19.30;13.00;;;;;10.80;102408.00;;;;10554576;28;20204;-77
2021/10/07 21:08:07;;;;;;;15.17;12.13;;;;;10.70;102418.00;;;;11491480;22;20233;-76
2021/10/07 21:13:08;;;;;;;16.77;11.27;;;;;10.60;102412.00;;;;10499266;28;20208;-76
2021/10/07 21:18:12;;;;;;;18.73;11.33;;;;;10.50;102416.00;;;;10471553;28;20220;-78
2021/10/07 21:23:13;;;;;;;24.50;10.60;;;;;10.40;102414.00;;;;10491783;28;20201;-76
2021/10/07 21:28:15;;;;;;;22.23;13.07;;;;;10.20;102411.00;;;;10446593;28;20208;-76
2021/10/07 21:33:16;;;;;;;15.93;12.40;;;;;10.10;102416.00;;;;10452251;28;20201;-76
2021/10/07 21:38:17;;;;;;;18.30;13.00;;;;;10.10;102419.00;;;;10454459;28;20217;-77
2021/10/07 21:43:19;;;;;;;17.13;11.73;;;;;10.00;102420.00;;;;10450810;28;20198;-75
2021/10/07 21:48:20;;;;;;;20.27;12.23;;;;;9.90;102417.00;;;;10487345;28;20228;-76
2021/10/07 21:53:21;;;;;;;16.73;12.33;;;;;9.80;102419.00;;;;10621706;22;21875;-76
2021/10/07 21:58:23;;;;;;;19.57;13.07;;;;;9.80;102420.00;;;;10401834;28;20226;-78
2021/10/07 22:03:24;;;;;;;17.00;12.83;;;;;9.70;102433.00;;;;10421034;28;20220;-77
2021/10/07 22:08:26;;;;;;;17.87;13.10;;;;;9.60;102426.00;;;;10415723;28;20202;-76
2021/10/07 22:13:27;;;;;;;21.23;15.43;;;;;9.60;102425.00;;;;10428245;28;20198;-76
2021/10/07 22:18:28;;;;;;;22.80;15.07;;;;;9.80;102431.00;;;;10404269;28;20272;-76
2021/10/07 22:23:29;;;;;;;21.83;14.40;;;;;9.80;102432.00;;;;10434671;28;20198;-77
2021/10/07 22:28:31;;;;;;;17.90;12.43;;;;;9.70;102442.00;;;;10401405;28;20198;-76
2021/10/07 22:33:33;;;;;;;16.37;12.23;;;;;9.60;102442.00;;;;10433899;28;20727;-76
2021/10/07 22:38:35;;;;;;;18.27;11.73;;;;;9.50;102445.00;;;;10434493;28;20210;-77
2021/10/07 22:43:36;;;;;;;20.23;12.97;;;;;9.40;102442.00;;;;10399244;28;20726;-77
2021/10/07 22:48:38;;;;;;;22.47;12.17;;;;;9.30;102448.00;;;;10400055;28;20198;-77
2021/10/07 22:53:39;;;;;;;16.80;12.23;;;;;9.20;102439.00;;;;10396537;28;20250;-77
2021/10/07 22:58:40;;;;;;;17.63;13.20;;;;;9.10;102441.00;;;;10371878;28;20547;-77
2021/10/07 23:03:41;;;;;;;19.47;12.30;;;;;9.00;102433.00;;;;10377088;28;20204;-76
2021/10/07 23:08:43;;;;;;;19.17;12.47;;;;;9.00;102445.00;;;;10376196;28;20207;-78
2021/10/07 23:13:44;;;;;;;19.00;13.37;;;;;8.90;102436.00;;;;10360971;28;20201;-76
2021/10/07 23:18:45;;;;;;;17.00;11.70;;;;;8.90;102436.00;;;;10368681;28;20218;-76
2021/10/07 23:23:46;;;;;;;19.73;13.57;;;;;8.80;102444.00;;;;10356928;28;20196;-76
2021/10/07 23:28:47;;;;;;;15.17;13.53;;;;;8.80;102440.00;;;;10371822;28;20281;-77
2021/10/07 23:33:49;;;;;;;20.37;12.57;;;;;8.70;102444.00;;;;10373765;28;20195;-76
2021/10/07 23:38:50;;;;;;;16.83;12.33;;;;;8.60;102441.00;;;;10349168;28;20207;-76
2021/10/07 23:43:51;;;;;;;17.47;13.33;;;;;8.50;102440.00;;;;10343350;28;20206;-79
2021/10/07 23:48:53;;;;;;;19.97;12.47;;;;;8.50;102447.00;;;;10320892;28;20207;-76
2021/10/07 23:53:54;;;;;;;18.67;12.67;;;;;8.40;102442.00;;;;10355846;28;20680;-76
2021/10/07 23:58:55;;;;;;;19.30;13.33;;;;;8.40;102443.00;;;;10391097;28;20221;-76
